createdAt,value
2019-02-09T15:40:59.930Z,99775.88
2019-02-09T15:43:26.291Z,99786.73
2019-02-09T15:45:55.088Z,99792.14
2019-02-09T15:48:23.575Z,99787.72
2019-02-09T15:50:49.989Z,99785.03
2019-02-09T15:53:16.565Z,99787.42
2019-02-09T15:56:01.551Z,99797.90
2019-02-09T16:49:13.684Z,99813.88
2019-02-09T16:51:40.528Z,99811.59
2019-02-09T16:54:08.669Z,99806.78
2019-02-09T16:56:35.652Z,99807.69
2019-02-09T16:59:02.553Z,99823.77
2019-02-09T17:01:29.541Z,99816.38
2019-02-09T17:03:56.291Z,99820.52
2019-02-09T17:06:23.188Z,99826.52
2019-02-09T17:08:49.934Z,99828.09
2019-02-09T17:11:16.692Z,99831.21
2019-02-09T17:13:43.616Z,99833.01
2019-02-09T17:16:10.621Z,99834.30
2019-02-09T17:18:37.388Z,99829.52
2019-02-09T17:21:04.248Z,99839.47
2019-02-09T17:23:31.104Z,99843.98
2019-02-09T17:25:57.980Z,99842.52
2019-02-09T17:28:24.881Z,99846.71
2019-02-09T17:30:51.855Z,99847.38
2019-02-09T17:33:19.864Z,99853.86
2019-02-09T17:35:46.605Z,99851.31
2019-02-09T17:38:13.347Z,99847.48
2019-02-09T17:40:43.056Z,99853.39
2019-02-09T17:43:10.678Z,99853.11
2019-02-09T17:45:44.311Z,99855.49
2019-02-09T17:48:11.178Z,99852.02
2019-02-09T17:50:38.081Z,99858.16
2019-02-09T17:53:05.004Z,99850.94
2019-02-09T17:55:31.874Z,99853.42
2019-02-09T17:57:58.754Z,99860.09
2019-02-09T18:00:33.996Z,99859.46
2019-02-09T18:03:00.738Z,99858.63
2019-02-09T18:05:27.488Z,99855.48
2019-02-09T18:07:54.276Z,99867.39
2019-02-09T18:10:21.236Z,99857.96
2019-02-09T18:12:48.211Z,99851.57
2019-02-09T18:15:15.517Z,99857.96
2019-02-09T18:17:42.502Z,99861.73
2019-02-09T18:20:11.236Z,99855.80
2019-02-09T18:22:38.304Z,99857.70
2019-02-09T18:25:06.059Z,99856.77
2019-02-09T18:27:32.808Z,99859.95
2019-02-09T18:29:59.619Z,99863.89
2019-02-09T18:32:26.479Z,99853.06
2019-02-09T18:34:56.179Z,99860.64
2019-02-09T18:37:21.939Z,99868.98
2019-02-09T18:39:48.812Z,99860.40
2019-02-09T18:42:15.777Z,99859.00
2019-02-09T18:44:42.753Z,99863.67
2019-02-09T18:47:09.594Z,99856.09
2019-02-09T18:49:36.473Z,99867.38
2019-02-09T18:52:03.398Z,99859.52
2019-02-09T18:54:30.152Z,99867.77
2019-02-09T18:56:57.025Z,99868.32
2019-02-09T18:59:24.033Z,99863.22
2019-02-09T19:01:51.020Z,99872.41
2019-02-09T19:04:17.766Z,99867.41
2019-02-09T19:06:44.573Z,99865.35
2019-02-09T19:09:11.546Z,99868.70
2019-02-09T19:11:38.710Z,99876.81
2019-02-09T19:14:05.626Z,99870.95
2019-02-09T19:16:32.589Z,99873.18
2019-02-09T19:18:59.816Z,99874.27
2019-02-09T19:21:26.590Z,99876.50
2019-02-09T19:23:53.447Z,99876.70
2019-02-09T19:26:20.448Z,99884.84
2019-02-09T19:28:47.251Z,99879.85
2019-02-09T19:31:14.125Z,99879.85
2019-02-09T19:33:41.045Z,99885.41
2019-02-09T19:36:07.850Z,99878.52
2019-02-09T19:38:34.625Z,99868.43
2019-02-09T19:41:01.508Z,99874.51
2019-02-09T19:43:28.825Z,99873.60
2019-02-09T19:45:55.656Z,99874.16
2019-02-09T19:48:22.515Z,99880.80
2019-02-09T19:50:49.527Z,99879.47
2019-02-09T19:53:17.551Z,99879.92
2019-02-09T19:55:44.419Z,99883.69
2019-02-09T19:58:11.314Z,99880.34
2019-02-09T20:00:40.127Z,99885.16
2019-02-09T20:03:08.405Z,99885.22
2019-02-09T20:05:36.633Z,99880.16
2019-02-09T20:08:04.111Z,99881.73
2019-02-09T20:10:32.817Z,99884.70
2019-02-09T20:12:59.738Z,99879.21
2019-02-09T20:15:26.498Z,99877.92
2019-02-09T20:17:53.251Z,99884.33
2019-02-09T20:20:20.136Z,99880.17
2019-02-09T20:22:46.859Z,99886.87
2019-02-09T20:25:15.589Z,99886.46
2019-02-09T20:27:42.593Z,99887.87
2019-02-09T20:30:13.917Z,99889.22
2019-02-09T20:32:40.864Z,99885.02
2019-02-09T20:35:09.799Z,99884.95
2019-02-09T20:37:36.697Z,99882.13
2019-02-09T20:40:05.246Z,99887.48
2019-02-09T20:42:32.143Z,99887.14
2019-02-09T20:44:59.204Z,99878.89
2019-02-09T20:47:27.145Z,99885.41
2019-02-09T20:49:54.130Z,99873.41
2019-02-09T20:52:20.874Z,99873.58
2019-02-09T20:54:48.926Z,99875.42
2019-02-09T20:57:15.845Z,99866.22
2019-02-09T20:59:42.810Z,99874.30
2019-02-09T21:02:09.563Z,99864.30
2019-02-09T21:04:36.728Z,99864.19
2019-02-09T21:07:03.465Z,99862.94
2019-02-09T21:09:30.229Z,99867.14
2019-02-09T21:11:57.140Z,99869.37
2019-02-09T21:14:24.112Z,99858.55
2019-02-09T21:16:51.876Z,99864.73
2019-02-09T21:19:19.007Z,99870.97
2019-02-09T21:21:45.872Z,99861.86
2019-02-09T21:24:12.731Z,99860.86
2019-02-09T21:26:39.766Z,99858.44
2019-02-09T21:29:06.747Z,99862.98
2019-02-09T21:31:33.718Z,99856.35
2019-02-09T21:34:00.748Z,99851.19
2019-02-09T21:36:29.437Z,99854.81
2019-02-09T21:38:56.409Z,99844.94
2019-02-09T21:41:23.210Z,99840.30
2019-02-09T21:43:50.060Z,99844.61
2019-02-09T21:46:17.313Z,99843.07
2019-02-09T21:48:44.315Z,99839.45
2019-02-09T21:51:11.055Z,99830.42
2019-02-09T21:53:37.932Z,99829.28
2019-02-09T21:56:04.940Z,99827.05
2019-02-09T21:58:31.903Z,99828.09
2019-02-09T22:00:58.807Z,99816.77
2019-02-09T22:03:26.664Z,99818.97
2019-02-09T22:05:53.722Z,99818.95
2019-02-09T22:08:20.667Z,99822.47
2019-02-09T22:10:47.577Z,99827.82
2019-02-09T22:13:14.800Z,99814.16
2019-02-09T22:15:41.752Z,99830.30
2019-02-09T22:18:08.770Z,99821.61
2019-02-09T22:20:35.797Z,99825.59
2019-02-09T22:23:02.732Z,99814.16
2019-02-09T22:25:30.930Z,99814.62
2019-02-09T22:27:57.686Z,99812.23
2019-02-09T22:30:26.000Z,99820.19
2019-02-09T22:32:54.268Z,99821.10
2019-02-09T22:35:21.299Z,99819.73
2019-02-09T22:37:48.091Z,99816.34
2019-02-09T22:40:19.955Z,99810.84
2019-02-09T22:42:46.989Z,99816.46
2019-02-09T22:45:16.246Z,99801.61
2019-02-09T22:47:43.225Z,99814.25
2019-02-09T22:50:19.011Z,99808.20
2019-02-09T22:52:42.629Z,99804.07
2019-02-09T22:55:10.178Z,99806.25
2019-02-09T22:57:36.936Z,99808.72
2019-02-09T23:00:11.255Z,99805.37
2019-02-09T23:02:40.010Z,99805.02
2019-02-09T23:05:20.276Z,99799.09
2019-02-09T23:07:47.139Z,99803.04
2019-02-09T23:10:13.872Z,99801.61
2019-02-09T23:12:48.112Z,99800.05
2019-02-09T23:15:09.503Z,99795.71
2019-02-09T23:17:37.410Z,99786.75
2019-02-09T23:20:05.610Z,99787.06
2019-02-09T23:22:32.365Z,99785.32
2019-02-09T23:24:59.339Z,99778.72
2019-02-09T23:27:27.444Z,99775.70
2019-02-09T23:29:54.274Z,99773.55
2019-02-09T23:32:21.016Z,99770.98
2019-02-09T23:34:47.781Z,99763.34
2019-02-09T23:37:14.741Z,99761.41
2019-02-09T23:39:41.506Z,99759.21
2019-02-09T23:42:08.415Z,99755.61
2019-02-09T23:44:35.346Z,99749.75
2019-02-09T23:47:02.191Z,99741.52
2019-02-09T23:49:29.225Z,99741.78
2019-02-09T23:51:55.991Z,99729.11
2019-02-09T23:54:22.842Z,99737.84
2019-02-09T23:56:49.811Z,99730.66
2019-02-09T23:59:16.600Z,99721.18
